sensor_id;sensor_type;location;lat;lon;timestamp;P1;durP1;ratioP1;P2;durP2;ratioP2
21917;SDS011;11123;49.882;8.662;2022-10-31T00:02:04;13.02;;;6.57;;
21917;SDS011;11123;49.882;8.662;2022-10-31T00:04:39;13.20;;;6.50;;
21917;SDS011;11123;49.882;8.662;2022-10-31T00:07:17;20.00;;;6.88;;
21917;SDS011;11123;49.882;8.662;2022-10-31T00:09:47;13.82;;;6.65;;
21917;SDS011;11123;49.882;8.662;2022-10-31T00:12:16;18.40;;;6.53;;
21917;SDS011;11123;49.882;8.662;2022-10-31T00:14:47;18.90;;;6.50;;
21917;SDS011;11123;49.882;8.662;2022-10-31T00:17:16;16.15;;;6.53;;
21917;SDS011;11123;49.882;8.662;2022-10-31T00:19:45;13.98;;;6.75;;
21917;SDS011;11123;49.882;8.662;2022-10-31T00:22:17;14.32;;;7.18;;
21917;SDS011;11123;49.882;8.662;2022-10-31T00:24:47;17.70;;;6.68;;
21917;SDS011;11123;49.882;8.662;2022-10-31T00:27:15;16.17;;;6.95;;
21917;SDS011;11123;49.882;8.662;2022-10-31T00:29:45;16.65;;;6.97;;
21917;SDS011;11123;49.882;8.662;2022-10-31T00:32:13;13.35;;;6.63;;
21917;SDS011;11123;49.882;8.662;2022-10-31T00:34:42;13.52;;;6.57;;
21917;SDS011;11123;49.882;8.662;2022-10-31T00:37:10;15.27;;;6.43;;
21917;SDS011;11123;49.882;8.662;2022-10-31T00:39:42;15.75;;;7.10;;
21917;SDS011;11123;49.882;8.662;2022-10-31T00:42:16;17.50;;;6.85;;
21917;SDS011;11123;49.882;8.662;2022-10-31T00:44:44;15.07;;;7.68;;
21917;SDS011;11123;49.882;8.662;2022-10-31T00:47:14;16.17;;;7.40;;
21917;SDS011;11123;49.882;8.662;2022-10-31T00:49:44;15.07;;;6.95;;
21917;SDS011;11123;49.882;8.662;2022-10-31T00:52:13;14.32;;;7.03;;
21917;SDS011;11123;49.882;8.662;2022-10-31T00:54:42;16.00;;;7.57;;
21917;SDS011;11123;49.882;8.662;2022-10-31T00:57:13;18.17;;;8.18;;
21917;SDS011;11123;49.882;8.662;2022-10-31T00:59:50;16.48;;;7.68;;
21917;SDS011;11123;49.882;8.662;2022-10-31T01:02:22;15.27;;;7.40;;
21917;SDS011;11123;49.882;8.662;2022-10-31T01:04:55;13.82;;;6.97;;
21917;SDS011;11123;49.882;8.662;2022-10-31T01:07:24;15.57;;;6.90;;
21917;SDS011;11123;49.882;8.662;2022-10-31T01:09:52;15.45;;;6.63;;
21917;SDS011;11123;49.882;8.662;2022-10-31T01:12:22;14.55;;;5.97;;
21917;SDS011;11123;49.882;8.662;2022-10-31T01:14:53;15.05;;;6.63;;
21917;SDS011;11123;49.882;8.662;2022-10-31T01:17:24;16.58;;;6.85;;
21917;SDS011;11123;49.882;8.662;2022-10-31T01:19:52;12.90;;;5.68;;
21917;SDS011;11123;49.882;8.662;2022-10-31T01:22:21;14.55;;;6.60;;
21917;SDS011;11123;49.882;8.662;2022-10-31T01:24:49;15.68;;;6.30;;
21917;SDS011;11123;49.882;8.662;2022-10-31T01:27:18;12.68;;;6.00;;
21917;SDS011;11123;49.882;8.662;2022-10-31T01:29:48;12.18;;;5.68;;
21917;SDS011;11123;49.882;8.662;2022-10-31T01:32:18;15.05;;;6.57;;
21917;SDS011;11123;49.882;8.662;2022-10-31T01:34:48;11.07;;;5.88;;
21917;SDS011;11123;49.882;8.662;2022-10-31T01:37:17;15.30;;;6.32;;
21917;SDS011;11123;49.882;8.662;2022-10-31T01:39:45;14.40;;;6.78;;
21917;SDS011;11123;49.882;8.662;2022-10-31T01:42:17;10.70;;;5.95;;
21917;SDS011;11123;49.882;8.662;2022-10-31T01:44:53;13.52;;;6.30;;
21917;SDS011;11123;49.882;8.662;2022-10-31T01:47:27;13.13;;;7.18;;
21917;SDS011;11123;49.882;8.662;2022-10-31T01:50:02;15.05;;;6.47;;
21917;SDS011;11123;49.882;8.662;2022-10-31T01:52:37;16.92;;;6.00;;
21917;SDS011;11123;49.882;8.662;2022-10-31T01:55:11;11.80;;;6.40;;
21917;SDS011;11123;49.882;8.662;2022-10-31T01:57:44;14.73;;;6.55;;
21917;SDS011;11123;49.882;8.662;2022-10-31T02:03:18;13.63;;;6.90;;
21917;SDS011;11123;49.882;8.662;2022-10-31T02:05:49;13.57;;;5.70;;
21917;SDS011;11123;49.882;8.662;2022-10-31T02:08:21;10.40;;;5.80;;
21917;SDS011;11123;49.882;8.662;2022-10-31T02:10:54;11.98;;;6.00;;
21917;SDS011;11123;49.882;8.662;2022-10-31T02:13:23;9.65;;;6.07;;
21917;SDS011;11123;49.882;8.662;2022-10-31T02:15:54;11.38;;;5.95;;
21917;SDS011;11123;49.882;8.662;2022-10-31T02:18:24;11.23;;;5.65;;
21917;SDS011;11123;49.882;8.662;2022-10-31T02:20:58;15.20;;;5.57;;
21917;SDS011;11123;49.882;8.662;2022-10-31T02:23:44;14.63;;;5.90;;
21917;SDS011;11123;49.882;8.662;2022-10-31T02:32:37;12.63;;;5.88;;
21917;SDS011;11123;49.882;8.662;2022-10-31T02:35:12;12.60;;;5.55;;
21917;SDS011;11123;49.882;8.662;2022-10-31T02:37:49;15.07;;;6.32;;
21917;SDS011;11123;49.882;8.662;2022-10-31T02:40:23;13.90;;;6.18;;
21917;SDS011;11123;49.882;8.662;2022-10-31T02:43:21;11.43;;;5.38;;
21917;SDS011;11123;49.882;8.662;2022-10-31T02:45:56;12.93;;;5.63;;
21917;SDS011;11123;49.882;8.662;2022-10-31T02:48:33;14.55;;;5.05;;
21917;SDS011;11123;49.882;8.662;2022-10-31T02:51:03;11.07;;;4.93;;
21917;SDS011;11123;49.882;8.662;2022-10-31T02:53:35;14.13;;;5.55;;
21917;SDS011;11123;49.882;8.662;2022-10-31T02:56:09;12.75;;;4.93;;
21917;SDS011;11123;49.882;8.662;2022-10-31T02:58:41;13.50;;;4.78;;
21917;SDS011;11123;49.882;8.662;2022-10-31T03:04:23;15.75;;;5.65;;
21917;SDS011;11123;49.882;8.662;2022-10-31T03:07:03;12.40;;;5.55;;
21917;SDS011;11123;49.882;8.662;2022-10-31T03:09:38;10.43;;;5.18;;
21917;SDS011;11123;49.882;8.662;2022-10-31T03:12:14;9.70;;;5.88;;
21917;SDS011;11123;49.882;8.662;2022-10-31T03:14:48;16.25;;;6.13;;
21917;SDS011;11123;49.882;8.662;2022-10-31T03:17:22;15.02;;;6.65;;
21917;SDS011;11123;49.882;8.662;2022-10-31T03:19:56;14.55;;;5.70;;
21917;SDS011;11123;49.882;8.662;2022-10-31T03:22:28;18.58;;;6.40;;
21917;SDS011;11123;49.882;8.662;2022-10-31T03:24:59;12.40;;;5.93;;
21917;SDS011;11123;49.882;8.662;2022-10-31T03:27:31;13.75;;;6.40;;
21917;SDS011;11123;49.882;8.662;2022-10-31T03:30:03;17.25;;;6.28;;
21917;SDS011;11123;49.882;8.662;2022-10-31T03:32:50;13.15;;;6.13;;
21917;SDS011;11123;49.882;8.662;2022-10-31T03:35:23;16.90;;;6.05;;
21917;SDS011;11123;49.882;8.662;2022-10-31T03:37:54;17.75;;;6.18;;
21917;SDS011;11123;49.882;8.662;2022-10-31T03:40:24;14.60;;;6.43;;
21917;SDS011;11123;49.882;8.662;2022-10-31T03:42:57;13.60;;;7.10;;
21917;SDS011;11123;49.882;8.662;2022-10-31T03:45:31;13.85;;;6.60;;
21917;SDS011;11123;49.882;8.662;2022-10-31T03:48:03;14.15;;;6.30;;
21917;SDS011;11123;49.882;8.662;2022-10-31T03:50:36;14.05;;;6.05;;
21917;SDS011;11123;49.882;8.662;2022-10-31T03:53:09;14.45;;;6.68;;
21917;SDS011;11123;49.882;8.662;2022-10-31T03:55:42;15.77;;;6.50;;
21917;SDS011;11123;49.882;8.662;2022-10-31T03:58:18;18.02;;;6.35;;
21917;SDS011;11123;49.882;8.662;2022-10-31T04:00:54;12.77;;;5.90;;
21917;SDS011;11123;49.882;8.662;2022-10-31T04:03:25;13.27;;;5.50;;
21917;SDS011;11123;49.882;8.662;2022-10-31T04:06:02;10.57;;;6.10;;
21917;SDS011;11123;49.882;8.662;2022-10-31T04:08:38;11.55;;;5.68;;
21917;SDS011;11123;49.882;8.662;2022-10-31T04:11:15;12.23;;;6.15;;
21917;SDS011;11123;49.882;8.662;2022-10-31T04:14:05;14.88;;;6.30;;
21917;SDS011;11123;49.882;8.662;2022-10-31T04:16:35;11.00;;;6.00;;
21917;SDS011;11123;49.882;8.662;2022-10-31T04:19:04;13.18;;;6.13;;
21917;SDS011;11123;49.882;8.662;2022-10-31T04:21:34;20.35;;;6.38;;
21917;SDS011;11123;49.882;8.662;2022-10-31T04:24:03;10.07;;;5.25;;
21917;SDS011;11123;49.882;8.662;2022-10-31T04:26:32;14.13;;;5.60;;
21917;SDS011;11123;49.882;8.662;2022-10-31T04:29:01;15.68;;;5.28;;
21917;SDS011;11123;49.882;8.662;2022-10-31T04:31:29;11.73;;;5.93;;
21917;SDS011;11123;49.882;8.662;2022-10-31T04:33:58;11.75;;;5.70;;
21917;SDS011;11123;49.882;8.662;2022-10-31T04:36:26;17.48;;;5.80;;
21917;SDS011;11123;49.882;8.662;2022-10-31T04:38:56;11.80;;;5.53;;
21917;SDS011;11123;49.882;8.662;2022-10-31T04:41:34;14.15;;;5.82;;
21917;SDS011;11123;49.882;8.662;2022-10-31T04:44:15;10.45;;;5.65;;
21917;SDS011;11123;49.882;8.662;2022-10-31T04:46:47;11.52;;;5.15;;
21917;SDS011;11123;49.882;8.662;2022-10-31T04:49:16;13.95;;;5.90;;
21917;SDS011;11123;49.882;8.662;2022-10-31T04:51:45;13.32;;;5.55;;
21917;SDS011;11123;49.882;8.662;2022-10-31T04:54:16;11.73;;;5.28;;
21917;SDS011;11123;49.882;8.662;2022-10-31T04:57:03;10.23;;;5.63;;
21917;SDS011;11123;49.882;8.662;2022-10-31T04:59:31;13.27;;;5.15;;
21917;SDS011;11123;49.882;8.662;2022-10-31T05:01:59;18.00;;;5.43;;
21917;SDS011;11123;49.882;8.662;2022-10-31T05:04:45;12.95;;;4.95;;
21917;SDS011;11123;49.882;8.662;2022-10-31T05:07:15;10.23;;;4.70;;
21917;SDS011;11123;49.882;8.662;2022-10-31T05:09:44;12.45;;;5.90;;
21917;SDS011;11123;49.882;8.662;2022-10-31T05:12:13;12.25;;;4.95;;
21917;SDS011;11123;49.882;8.662;2022-10-31T05:15:07;13.35;;;5.40;;
21917;SDS011;11123;49.882;8.662;2022-10-31T05:17:54;12.60;;;5.40;;
21917;SDS011;11123;49.882;8.662;2022-10-31T05:20:44;14.95;;;5.32;;
21917;SDS011;11123;49.882;8.662;2022-10-31T05:23:33;10.00;;;4.90;;
21917;SDS011;11123;49.882;8.662;2022-10-31T05:26:05;9.90;;;4.30;;
21917;SDS011;11123;49.882;8.662;2022-10-31T05:28:33;10.82;;;4.93;;
21917;SDS011;11123;49.882;8.662;2022-10-31T05:31:02;11.80;;;4.78;;
21917;SDS011;11123;49.882;8.662;2022-10-31T05:33:31;11.00;;;5.18;;
21917;SDS011;11123;49.882;8.662;2022-10-31T05:36:37;8.82;;;4.90;;
21917;SDS011;11123;49.882;8.662;2022-10-31T05:39:14;10.98;;;5.40;;
21917;SDS011;11123;49.882;8.662;2022-10-31T05:41:48;14.35;;;5.30;;
21917;SDS011;11123;49.882;8.662;2022-10-31T05:44:21;11.55;;;4.88;;
21917;SDS011;11123;49.882;8.662;2022-10-31T05:47:04;12.60;;;4.80;;
21917;SDS011;11123;49.882;8.662;2022-10-31T05:49:59;11.93;;;4.55;;
21917;SDS011;11123;49.882;8.662;2022-10-31T05:52:30;12.50;;;4.90;;
21917;SDS011;11123;49.882;8.662;2022-10-31T05:55:06;11.88;;;4.70;;
21917;SDS011;11123;49.882;8.662;2022-10-31T05:57:38;11.98;;;5.57;;
21917;SDS011;11123;49.882;8.662;2022-10-31T06:00:08;8.32;;;4.93;;
21917;SDS011;11123;49.882;8.662;2022-10-31T06:02:46;14.75;;;6.00;;
21917;SDS011;11123;49.882;8.662;2022-10-31T06:05:24;12.50;;;5.30;;
21917;SDS011;11123;49.882;8.662;2022-10-31T06:07:53;10.10;;;4.68;;
21917;SDS011;11123;49.882;8.662;2022-10-31T06:10:22;12.02;;;5.10;;
21917;SDS011;11123;49.882;8.662;2022-10-31T06:12:55;9.13;;;4.75;;
21917;SDS011;11123;49.882;8.662;2022-10-31T06:15:36;9.50;;;5.10;;
21917;SDS011;11123;49.882;8.662;2022-10-31T06:18:07;10.95;;;4.78;;
21917;SDS011;11123;49.882;8.662;2022-10-31T06:20:45;8.73;;;4.45;;
21917;SDS011;11123;49.882;8.662;2022-10-31T06:23:13;10.75;;;5.47;;
21917;SDS011;11123;49.882;8.662;2022-10-31T06:25:47;12.07;;;5.30;;
21917;SDS011;11123;49.882;8.662;2022-10-31T06:28:17;12.02;;;5.82;;
21917;SDS011;11123;49.882;8.662;2022-10-31T06:31:01;12.38;;;5.53;;
21917;SDS011;11123;49.882;8.662;2022-10-31T06:33:30;13.27;;;5.32;;
21917;SDS011;11123;49.882;8.662;2022-10-31T06:36:00;13.73;;;5.97;;
21917;SDS011;11123;49.882;8.662;2022-10-31T06:38:30;11.93;;;5.63;;
21917;SDS011;11123;49.882;8.662;2022-10-31T06:41:01;8.95;;;5.07;;
21917;SDS011;11123;49.882;8.662;2022-10-31T06:43:40;16.20;;;5.32;;
21917;SDS011;11123;49.882;8.662;2022-10-31T06:46:31;8.27;;;4.53;;
21917;SDS011;11123;49.882;8.662;2022-10-31T06:49:18;15.95;;;5.03;;
21917;SDS011;11123;49.882;8.662;2022-10-31T06:51:52;14.63;;;5.47;;
21917;SDS011;11123;49.882;8.662;2022-10-31T06:54:21;10.93;;;5.57;;
21917;SDS011;11123;49.882;8.662;2022-10-31T06:56:50;10.65;;;4.97;;
21917;SDS011;11123;49.882;8.662;2022-10-31T06:59:19;14.27;;;4.63;;
21917;SDS011;11123;49.882;8.662;2022-10-31T07:02:07;12.15;;;4.53;;
21917;SDS011;11123;49.882;8.662;2022-10-31T07:04:38;13.57;;;4.95;;
21917;SDS011;11123;49.882;8.662;2022-10-31T07:07:07;12.75;;;4.82;;
21917;SDS011;11123;49.882;8.662;2022-10-31T07:09:37;13.68;;;5.15;;
21917;SDS011;11123;49.882;8.662;2022-10-31T07:12:07;11.18;;;4.63;;
21917;SDS011;11123;49.882;8.662;2022-10-31T07:14:40;10.48;;;5.00;;
21917;SDS011;11123;49.882;8.662;2022-10-31T07:17:08;9.63;;;4.85;;
21917;SDS011;11123;49.882;8.662;2022-10-31T07:19:40;11.45;;;4.50;;
21917;SDS011;11123;49.882;8.662;2022-10-31T07:22:09;8.65;;;4.43;;
21917;SDS011;11123;49.882;8.662;2022-10-31T07:24:41;11.10;;;4.70;;
21917;SDS011;11123;49.882;8.662;2022-10-31T07:27:36;14.68;;;4.90;;
21917;SDS011;11123;49.882;8.662;2022-10-31T07:30:12;10.55;;;4.63;;
21917;SDS011;11123;49.882;8.662;2022-10-31T07:32:43;18.55;;;5.35;;
21917;SDS011;11123;49.882;8.662;2022-10-31T07:35:15;10.98;;;4.85;;
21917;SDS011;11123;49.882;8.662;2022-10-31T07:37:55;11.27;;;4.97;;
21917;SDS011;11123;49.882;8.662;2022-10-31T07:40:24;11.00;;;4.55;;
21917;SDS011;11123;49.882;8.662;2022-10-31T07:42:53;7.93;;;4.40;;
21917;SDS011;11123;49.882;8.662;2022-10-31T07:45:41;9.75;;;4.82;;
21917;SDS011;11123;49.882;8.662;2022-10-31T07:48:41;11.55;;;4.78;;
21917;SDS011;11123;49.882;8.662;2022-10-31T07:51:48;7.65;;;4.63;;
21917;SDS011;11123;49.882;8.662;2022-10-31T07:54:51;10.60;;;4.97;;
21917;SDS011;11123;49.882;8.662;2022-10-31T07:57:22;8.70;;;5.15;;
21917;SDS011;11123;49.882;8.662;2022-10-31T07:59:52;10.13;;;4.65;;
21917;SDS011;11123;49.882;8.662;2022-10-31T08:02:23;10.18;;;4.38;;
21917;SDS011;11123;49.882;8.662;2022-10-31T08:05:27;13.80;;;4.78;;
21917;SDS011;11123;49.882;8.662;2022-10-31T08:08:25;10.63;;;4.57;;
21917;SDS011;11123;49.882;8.662;2022-10-31T08:10:59;14.48;;;4.85;;
21917;SDS011;11123;49.882;8.662;2022-10-31T08:13:29;11.35;;;4.82;;
21917;SDS011;11123;49.882;8.662;2022-10-31T08:15:58;12.43;;;4.53;;
21917;SDS011;11123;49.882;8.662;2022-10-31T08:18:34;12.98;;;4.50;;
21917;SDS011;11123;49.882;8.662;2022-10-31T08:21:06;10.82;;;4.55;;
21917;SDS011;11123;49.882;8.662;2022-10-31T08:23:35;10.52;;;4.65;;
21917;SDS011;11123;49.882;8.662;2022-10-31T08:26:04;11.90;;;4.57;;
21917;SDS011;11123;49.882;8.662;2022-10-31T08:28:33;10.52;;;4.57;;
21917;SDS011;11123;49.882;8.662;2022-10-31T08:31:02;9.60;;;4.70;;
21917;SDS011;11123;49.882;8.662;2022-10-31T08:33:39;8.40;;;4.63;;
21917;SDS011;11123;49.882;8.662;2022-10-31T08:36:26;12.82;;;4.55;;
21917;SDS011;11123;49.882;8.662;2022-10-31T08:38:58;8.98;;;4.20;;
21917;SDS011;11123;49.882;8.662;2022-10-31T08:41:29;14.20;;;4.68;;
21917;SDS011;11123;49.882;8.662;2022-10-31T08:43:59;9.68;;;4.40;;
21917;SDS011;11123;49.882;8.662;2022-10-31T08:46:27;8.25;;;3.95;;
21917;SDS011;11123;49.882;8.662;2022-10-31T08:48:57;9.48;;;4.07;;
21917;SDS011;11123;49.882;8.662;2022-10-31T08:51:25;9.57;;;4.70;;
21917;SDS011;11123;49.882;8.662;2022-10-31T08:53:55;11.10;;;4.32;;
21917;SDS011;11123;49.882;8.662;2022-10-31T08:56:43;9.23;;;4.00;;
21917;SDS011;11123;49.882;8.662;2022-10-31T08:59:28;8.23;;;3.92;;
21917;SDS011;11123;49.882;8.662;2022-10-31T09:02:15;11.88;;;4.22;;
21917;SDS011;11123;49.882;8.662;2022-10-31T09:04:45;9.57;;;4.10;;
21917;SDS011;11123;49.882;8.662;2022-10-31T09:07:13;9.57;;;4.03;;
21917;SDS011;11123;49.882;8.662;2022-10-31T09:09:47;10.77;;;4.30;;
21917;SDS011;11123;49.882;8.662;2022-10-31T09:12:17;11.15;;;4.35;;
21917;SDS011;11123;49.882;8.662;2022-10-31T09:15:12;10.35;;;4.45;;
21917;SDS011;11123;49.882;8.662;2022-10-31T09:17:47;9.07;;;4.18;;
21917;SDS011;11123;49.882;8.662;2022-10-31T09:20:26;12.50;;;5.22;;
21917;SDS011;11123;49.882;8.662;2022-10-31T09:22:55;10.27;;;4.28;;
21917;SDS011;11123;49.882;8.662;2022-10-31T09:25:24;9.88;;;4.28;;
21917;SDS011;11123;49.882;8.662;2022-10-31T09:28:14;10.25;;;4.78;;
21917;SDS011;11123;49.882;8.662;2022-10-31T09:30:46;10.43;;;4.32;;
21917;SDS011;11123;49.882;8.662;2022-10-31T09:33:22;11.80;;;4.60;;
21917;SDS011;11123;49.882;8.662;2022-10-31T09:36:12;10.48;;;4.40;;
21917;SDS011;11123;49.882;8.662;2022-10-31T09:38:40;8.50;;;3.63;;
21917;SDS011;11123;49.882;8.662;2022-10-31T09:41:13;9.65;;;3.67;;
21917;SDS011;11123;49.882;8.662;2022-10-31T09:43:49;13.70;;;4.05;;
21917;SDS011;11123;49.882;8.662;2022-10-31T09:46:29;9.30;;;4.05;;
21917;SDS011;11123;49.882;8.662;2022-10-31T09:49:10;9.35;;;3.47;;
21917;SDS011;11123;49.882;8.662;2022-10-31T09:51:54;7.00;;;3.65;;
21917;SDS011;11123;49.882;8.662;2022-10-31T09:54:32;8.80;;;3.53;;
21917;SDS011;11123;49.882;8.662;2022-10-31T09:57:04;10.57;;;3.50;;
21917;SDS011;11123;49.882;8.662;2022-10-31T09:59:39;8.23;;;3.25;;
21917;SDS011;11123;49.882;8.662;2022-10-31T10:02:12;8.65;;;3.15;;
21917;SDS011;11123;49.882;8.662;2022-10-31T10:04:46;11.82;;;3.60;;
21917;SDS011;11123;49.882;8.662;2022-10-31T10:07:24;11.98;;;3.90;;
21917;SDS011;11123;49.882;8.662;2022-10-31T10:10:42;8.63;;;3.45;;
21917;SDS011;11123;49.882;8.662;2022-10-31T10:13:44;12.07;;;3.78;;
21917;SDS011;11123;49.882;8.662;2022-10-31T10:16:28;8.77;;;3.70;;
21917;SDS011;11123;49.882;8.662;2022-10-31T10:19:13;9.43;;;3.45;;
21917;SDS011;11123;49.882;8.662;2022-10-31T10:21:53;9.48;;;3.22;;
21917;SDS011;11123;49.882;8.662;2022-10-31T10:24:33;9.48;;;3.40;;
21917;SDS011;11123;49.882;8.662;2022-10-31T10:27:12;11.18;;;3.75;;
21917;SDS011;11123;49.882;8.662;2022-10-31T10:29:50;11.93;;;3.30;;
21917;SDS011;11123;49.882;8.662;2022-10-31T10:32:27;8.00;;;3.15;;
21917;SDS011;11123;49.882;8.662;2022-10-31T10:35:01;8.38;;;3.30;;
21917;SDS011;11123;49.882;8.662;2022-10-31T10:37:38;13.63;;;3.40;;
21917;SDS011;11123;49.882;8.662;2022-10-31T10:40:13;10.73;;;3.40;;
21917;SDS011;11123;49.882;8.662;2022-10-31T10:42:44;7.95;;;3.20;;
21917;SDS011;11123;49.882;8.662;2022-10-31T10:45:36;9.50;;;3.15;;
21917;SDS011;11123;49.882;8.662;2022-10-31T10:48:26;7.80;;;3.38;;
21917;SDS011;11123;49.882;8.662;2022-10-31T10:51:00;9.70;;;3.03;;
21917;SDS011;11123;49.882;8.662;2022-10-31T10:53:35;11.38;;;3.40;;
21917;SDS011;11123;49.882;8.662;2022-10-31T10:56:36;8.13;;;3.30;;
21917;SDS011;11123;49.882;8.662;2022-10-31T10:59:11;7.85;;;3.17;;
21917;SDS011;11123;49.882;8.662;2022-10-31T11:01:41;9.40;;;3.10;;
21917;SDS011;11123;49.882;8.662;2022-10-31T11:04:21;7.15;;;3.03;;
21917;SDS011;11123;49.882;8.662;2022-10-31T11:06:57;12.05;;;3.50;;
21917;SDS011;11123;49.882;8.662;2022-10-31T11:09:27;8.55;;;3.20;;
21917;SDS011;11123;49.882;8.662;2022-10-31T11:11:57;11.20;;;3.40;;
21917;SDS011;11123;49.882;8.662;2022-10-31T11:14:27;13.75;;;3.20;;
21917;SDS011;11123;49.882;8.662;2022-10-31T11:17:06;9.73;;;2.90;;
21917;SDS011;11123;49.882;8.662;2022-10-31T11:19:37;10.75;;;3.58;;
21917;SDS011;11123;49.882;8.662;2022-10-31T11:22:06;9.52;;;3.20;;
21917;SDS011;11123;49.882;8.662;2022-10-31T11:24:39;8.02;;;3.38;;
21917;SDS011;11123;49.882;8.662;2022-10-31T11:27:14;14.95;;;3.92;;
21917;SDS011;11123;49.882;8.662;2022-10-31T11:29:44;5.97;;;2.97;;
21917;SDS011;11123;49.882;8.662;2022-10-31T11:32:16;9.38;;;3.50;;
21917;SDS011;11123;49.882;8.662;2022-10-31T11:34:48;9.18;;;2.83;;
21917;SDS011;11123;49.882;8.662;2022-10-31T11:37:20;9.57;;;3.30;;
21917;SDS011;11123;49.882;8.662;2022-10-31T11:39:52;11.38;;;3.25;;
21917;SDS011;11123;49.882;8.662;2022-10-31T11:42:24;6.63;;;2.97;;
21917;SDS011;11123;49.882;8.662;2022-10-31T11:44:55;7.22;;;3.05;;
21917;SDS011;11123;49.882;8.662;2022-10-31T11:47:25;10.27;;;2.90;;
21917;SDS011;11123;49.882;8.662;2022-10-31T11:49:57;9.70;;;3.13;;
21917;SDS011;11123;49.882;8.662;2022-10-31T11:52:30;10.85;;;3.78;;
21917;SDS011;11123;49.882;8.662;2022-10-31T11:55:01;12.02;;;3.05;;
21917;SDS011;11123;49.882;8.662;2022-10-31T11:57:44;9.00;;;3.40;;
21917;SDS011;11123;49.882;8.662;2022-10-31T12:00:20;11.00;;;2.97;;
21917;SDS011;11123;49.882;8.662;2022-10-31T12:02:50;7.03;;;2.97;;
21917;SDS011;11123;49.882;8.662;2022-10-31T12:05:20;6.93;;;3.10;;
21917;SDS011;11123;49.882;8.662;2022-10-31T12:07:54;8.45;;;3.25;;
21917;SDS011;11123;49.882;8.662;2022-10-31T12:10:30;7.38;;;3.13;;
21917;SDS011;11123;49.882;8.662;2022-10-31T12:13:12;10.32;;;3.10;;
21917;SDS011;11123;49.882;8.662;2022-10-31T12:15:50;11.60;;;2.95;;
21917;SDS011;11123;49.882;8.662;2022-10-31T12:18:36;10.07;;;3.30;;
21917;SDS011;11123;49.882;8.662;2022-10-31T12:21:23;8.20;;;3.20;;
21917;SDS011;11123;49.882;8.662;2022-10-31T12:24:11;8.85;;;2.95;;
21917;SDS011;11123;49.882;8.662;2022-10-31T12:26:48;11.63;;;3.25;;
21917;SDS011;11123;49.882;8.662;2022-10-31T12:29:29;8.57;;;2.80;;
21917;SDS011;11123;49.882;8.662;2022-10-31T12:32:15;8.52;;;3.17;;
21917;SDS011;11123;49.882;8.662;2022-10-31T12:34:55;11.48;;;3.55;;
21917;SDS011;11123;49.882;8.662;2022-10-31T12:37:59;12.45;;;3.22;;
21917;SDS011;11123;49.882;8.662;2022-10-31T12:40:42;8.05;;;2.92;;
21917;SDS011;11123;49.882;8.662;2022-10-31T12:43:25;8.98;;;3.10;;
21917;SDS011;11123;49.882;8.662;2022-10-31T12:46:04;13.70;;;3.45;;
21917;SDS011;11123;49.882;8.662;2022-10-31T12:48:41;8.30;;;3.20;;
21917;SDS011;11123;49.882;8.662;2022-10-31T12:51:33;10.30;;;3.40;;
21917;SDS011;11123;49.882;8.662;2022-10-31T12:54:17;11.95;;;3.65;;
21917;SDS011;11123;49.882;8.662;2022-10-31T12:56:58;8.00;;;3.03;;
21917;SDS011;11123;49.882;8.662;2022-10-31T12:59:32;11.43;;;3.55;;
21917;SDS011;11123;49.882;8.662;2022-10-31T13:02:09;8.43;;;3.45;;
21917;SDS011;11123;49.882;8.662;2022-10-31T13:04:46;9.10;;;3.33;;
21917;SDS011;11123;49.882;8.662;2022-10-31T13:07:19;9.57;;;3.35;;
21917;SDS011;11123;49.882;8.662;2022-10-31T13:09:54;8.95;;;3.42;;
21917;SDS011;11123;49.882;8.662;2022-10-31T13:12:27;8.38;;;2.65;;
21917;SDS011;11123;49.882;8.662;2022-10-31T13:15:12;9.30;;;3.20;;
21917;SDS011;11123;49.882;8.662;2022-10-31T13:17:47;6.32;;;2.92;;
21917;SDS011;11123;49.882;8.662;2022-10-31T13:20:21;8.93;;;3.60;;
21917;SDS011;11123;49.882;8.662;2022-10-31T13:22:55;10.32;;;4.90;;
21917;SDS011;11123;49.882;8.662;2022-10-31T13:25:44;9.57;;;3.40;;
21917;SDS011;11123;49.882;8.662;2022-10-31T13:28:22;9.68;;;3.40;;
21917;SDS011;11123;49.882;8.662;2022-10-31T13:30:56;10.38;;;3.15;;
21917;SDS011;11123;49.882;8.662;2022-10-31T13:33:27;6.57;;;2.92;;
21917;SDS011;11123;49.882;8.662;2022-10-31T13:36:03;9.18;;;2.80;;
21917;SDS011;11123;49.882;8.662;2022-10-31T13:38:43;7.97;;;2.97;;
21917;SDS011;11123;49.882;8.662;2022-10-31T13:41:27;7.22;;;2.83;;
21917;SDS011;11123;49.882;8.662;2022-10-31T13:44:04;7.53;;;2.90;;
21917;SDS011;11123;49.882;8.662;2022-10-31T13:46:40;9.18;;;2.97;;
21917;SDS011;11123;49.882;8.662;2022-10-31T13:49:25;8.65;;;2.92;;
21917;SDS011;11123;49.882;8.662;2022-10-31T13:52:16;9.48;;;3.30;;
21917;SDS011;11123;49.882;8.662;2022-10-31T13:54:51;12.25;;;5.50;;
21917;SDS011;11123;49.882;8.662;2022-10-31T13:57:27;11.93;;;4.10;;
21917;SDS011;11123;49.882;8.662;2022-10-31T14:00:04;8.43;;;3.50;;
21917;SDS011;11123;49.882;8.662;2022-10-31T14:02:44;8.30;;;3.10;;
21917;SDS011;11123;49.882;8.662;2022-10-31T14:05:21;6.78;;;3.03;;
21917;SDS011;11123;49.882;8.662;2022-10-31T14:07:52;8.00;;;2.97;;
21917;SDS011;11123;49.882;8.662;2022-10-31T14:10:24;9.05;;;3.65;;
21917;SDS011;11123;49.882;8.662;2022-10-31T14:13:02;12.48;;;3.53;;
21917;SDS011;11123;49.882;8.662;2022-10-31T14:15:33;7.18;;;3.42;;
21917;SDS011;11123;49.882;8.662;2022-10-31T14:18:17;9.35;;;3.50;;
21917;SDS011;11123;49.882;8.662;2022-10-31T14:20:52;8.55;;;3.05;;
21917;SDS011;11123;49.882;8.662;2022-10-31T14:23:34;9.60;;;3.28;;
21917;SDS011;11123;49.882;8.662;2022-10-31T14:26:16;9.10;;;3.45;;
21917;SDS011;11123;49.882;8.662;2022-10-31T14:28:58;10.23;;;3.17;;
21917;SDS011;11123;49.882;8.662;2022-10-31T14:31:28;9.15;;;3.28;;
21917;SDS011;11123;49.882;8.662;2022-10-31T14:34:05;9.93;;;3.50;;
21917;SDS011;11123;49.882;8.662;2022-10-31T14:36:56;13.20;;;3.60;;
21917;SDS011;11123;49.882;8.662;2022-10-31T14:39:33;12.68;;;4.20;;
21917;SDS011;11123;49.882;8.662;2022-10-31T14:42:16;10.57;;;3.65;;
21917;SDS011;11123;49.882;8.662;2022-10-31T14:45:02;9.23;;;3.30;;
21917;SDS011;11123;49.882;8.662;2022-10-31T14:47:46;10.55;;;3.85;;
21917;SDS011;11123;49.882;8.662;2022-10-31T14:50:37;9.48;;;3.35;;
21917;SDS011;11123;49.882;8.662;2022-10-31T14:53:14;9.25;;;3.30;;
21917;SDS011;11123;49.882;8.662;2022-10-31T14:55:48;6.75;;;2.90;;
21917;SDS011;11123;49.882;8.662;2022-10-31T14:58:18;7.28;;;3.35;;
21917;SDS011;11123;49.882;8.662;2022-10-31T15:00:50;6.32;;;2.95;;
21917;SDS011;11123;49.882;8.662;2022-10-31T15:03:25;7.63;;;3.42;;
21917;SDS011;11123;49.882;8.662;2022-10-31T15:05:58;11.02;;;3.47;;
21917;SDS011;11123;49.882;8.662;2022-10-31T15:08:31;13.05;;;3.65;;
21917;SDS011;11123;49.882;8.662;2022-10-31T15:11:02;10.02;;;3.50;;
21917;SDS011;11123;49.882;8.662;2022-10-31T15:13:41;14.23;;;3.97;;
21917;SDS011;11123;49.882;8.662;2022-10-31T15:16:11;8.73;;;3.60;;
21917;SDS011;11123;49.882;8.662;2022-10-31T15:18:46;14.00;;;3.88;;
21917;SDS011;11123;49.882;8.662;2022-10-31T15:21:19;8.00;;;3.15;;
21917;SDS011;11123;49.882;8.662;2022-10-31T15:23:52;10.68;;;3.72;;
21917;SDS011;11123;49.882;8.662;2022-10-31T15:26:23;9.20;;;3.92;;
21917;SDS011;11123;49.882;8.662;2022-10-31T15:28:58;6.38;;;3.38;;
21917;SDS011;11123;49.882;8.662;2022-10-31T15:31:28;13.20;;;3.90;;
21917;SDS011;11123;49.882;8.662;2022-10-31T15:33:59;8.10;;;4.15;;
21917;SDS011;11123;49.882;8.662;2022-10-31T15:36:32;9.93;;;3.65;;
21917;SDS011;11123;49.882;8.662;2022-10-31T15:39:08;8.52;;;3.88;;
21917;SDS011;11123;49.882;8.662;2022-10-31T15:41:46;9.80;;;3.75;;